North Hills, North Carolina
Current Conditions -  °F | °C
As of 10:51 AM on Friday 19 Dec 2014 (Local Time) from KRDU Reporting Station
Few Clouds Few Clouds  
Wind Chill: 43°   Ceiling: Unl
Heat Index: 47°   Visibility: 10mi
Dew Point: 22°   Wind: 8mph
Humidity: 37%   Direction: 340°NNW
Pressure: 30.18"   Gusts: NA
Location:  35.9447°N, 78.6275°W
Report Text: KRDU 191551Z 34007KT 10SM FEW250 08/M06 A3018 RMK AO2 SLP222 T00831056
Loading
Personal Weather Stations






























Interactive Weather Map New forecast layout! Learn more

10-Day Weather Forecast

Advertisements
Track Severe Weather on mobile